sensor_id;sensor_type;location;lat;lon;timestamp;P1;durP1;ratioP1;P2;durP2;ratioP2
49900;SDS011;35789;48.414;12.768;2022-12-18T00:00:00;46.9;;;17.6;;
49900;SDS011;35789;48.414;12.768;2022-12-18T00:05:00;46.9;;;17.6;;
49900;SDS011;35789;48.414;12.768;2022-12-18T00:10:00;46.9;;;17.6;;
49900;SDS011;35789;48.414;12.768;2022-12-18T00:15:00;46.9;;;17.6;;
49900;SDS011;35789;48.414;12.768;2022-12-18T00:20:00;46.9;;;17.6;;
49900;SDS011;35789;48.414;12.768;2022-12-18T00:25:00;44.7;;;17.8;;
49900;SDS011;35789;48.414;12.768;2022-12-18T00:30:00;44.7;;;17.8;;
49900;SDS011;35789;48.414;12.768;2022-12-18T00:35:00;44.7;;;17.8;;
49900;SDS011;35789;48.414;12.768;2022-12-18T00:40:00;44.7;;;17.8;;
49900;SDS011;35789;48.414;12.768;2022-12-18T00:45:00;44.7;;;17.8;;
49900;SDS011;35789;48.414;12.768;2022-12-18T00:50:00;44.7;;;17.8;;
49900;SDS011;35789;48.414;12.768;2022-12-18T00:55:00;48.0;;;16.8;;
49900;SDS011;35789;48.414;12.768;2022-12-18T01:00:00;48.0;;;16.8;;
49900;SDS011;35789;48.414;12.768;2022-12-18T01:05:00;48.0;;;16.8;;
49900;SDS011;35789;48.414;12.768;2022-12-18T01:10:00;48.0;;;16.8;;
49900;SDS011;35789;48.414;12.768;2022-12-18T01:15:00;48.0;;;16.8;;
49900;SDS011;35789;48.414;12.768;2022-12-18T01:20:00;48.0;;;16.8;;
49900;SDS011;35789;48.414;12.768;2022-12-18T01:25:00;42.8;;;16.0;;
49900;SDS011;35789;48.414;12.768;2022-12-18T01:30:00;42.8;;;16.0;;
49900;SDS011;35789;48.414;12.768;2022-12-18T01:35:00;42.8;;;16.0;;
49900;SDS011;35789;48.414;12.768;2022-12-18T01:40:00;42.8;;;16.0;;
49900;SDS011;35789;48.414;12.768;2022-12-18T01:45:02;42.8;;;16.0;;
49900;SDS011;35789;48.414;12.768;2022-12-18T01:50:04;42.8;;;16.0;;
49900;SDS011;35789;48.414;12.768;2022-12-18T01:55:02;42.9;;;16.7;;
49900;SDS011;35789;48.414;12.768;2022-12-18T02:00:04;42.9;;;16.7;;
49900;SDS011;35789;48.414;12.768;2022-12-18T02:05:00;42.9;;;16.7;;
49900;SDS011;35789;48.414;12.768;2022-12-18T02:10:04;42.9;;;16.7;;
49900;SDS011;35789;48.414;12.768;2022-12-18T02:15:05;42.9;;;16.7;;
49900;SDS011;35789;48.414;12.768;2022-12-18T02:20:07;42.9;;;16.7;;
49900;SDS011;35789;48.414;12.768;2022-12-18T02:25:11;40.5;;;15.4;;
49900;SDS011;35789;48.414;12.768;2022-12-18T02:30:01;40.5;;;15.4;;
49900;SDS011;35789;48.414;12.768;2022-12-18T02:35:02;40.5;;;15.4;;
49900;SDS011;35789;48.414;12.768;2022-12-18T02:40:02;40.5;;;15.4;;
49900;SDS011;35789;48.414;12.768;2022-12-18T02:45:00;40.5;;;15.4;;
49900;SDS011;35789;48.414;12.768;2022-12-18T02:50:07;40.5;;;15.4;;
49900;SDS011;35789;48.414;12.768;2022-12-18T02:55:08;36.4;;;14.2;;
49900;SDS011;35789;48.414;12.768;2022-12-18T03:00:04;36.4;;;14.2;;
49900;SDS011;35789;48.414;12.768;2022-12-18T03:05:03;36.4;;;14.2;;
49900;SDS011;35789;48.414;12.768;2022-12-18T03:10:00;36.4;;;14.2;;
49900;SDS011;35789;48.414;12.768;2022-12-18T03:15:04;36.4;;;14.2;;
49900;SDS011;35789;48.414;12.768;2022-12-18T03:20:04;36.4;;;14.2;;
49900;SDS011;35789;48.414;12.768;2022-12-18T03:25:01;42.2;;;15.8;;
49900;SDS011;35789;48.414;12.768;2022-12-18T03:30:02;42.2;;;15.8;;
49900;SDS011;35789;48.414;12.768;2022-12-18T03:35:03;42.2;;;15.8;;
49900;SDS011;35789;48.414;12.768;2022-12-18T03:40:00;42.2;;;15.8;;
49900;SDS011;35789;48.414;12.768;2022-12-18T03:45:05;42.2;;;15.8;;
49900;SDS011;35789;48.414;12.768;2022-12-18T03:50:06;42.2;;;15.8;;
49900;SDS011;35789;48.414;12.768;2022-12-18T03:55:01;38.9;;;14.6;;
49900;SDS011;35789;48.414;12.768;2022-12-18T04:00:02;38.9;;;14.6;;
49900;SDS011;35789;48.414;12.768;2022-12-18T04:05:02;38.9;;;14.6;;
49900;SDS011;35789;48.414;12.768;2022-12-18T04:10:01;38.9;;;14.6;;
49900;SDS011;35789;48.414;12.768;2022-12-18T04:15:00;38.9;;;14.6;;
49900;SDS011;35789;48.414;12.768;2022-12-18T04:20:00;38.9;;;14.6;;
49900;SDS011;35789;48.414;12.768;2022-12-18T04:25:00;40.3;;;15.3;;
49900;SDS011;35789;48.414;12.768;2022-12-18T04:30:00;40.3;;;15.3;;
49900;SDS011;35789;48.414;12.768;2022-12-18T04:35:00;40.3;;;15.3;;
49900;SDS011;35789;48.414;12.768;2022-12-18T04:40:00;40.3;;;15.3;;
49900;SDS011;35789;48.414;12.768;2022-12-18T04:45:00;40.3;;;15.3;;
49900;SDS011;35789;48.414;12.768;2022-12-18T04:50:00;40.3;;;15.3;;
49900;SDS011;35789;48.414;12.768;2022-12-18T04:55:00;37.4;;;14.6;;
49900;SDS011;35789;48.414;12.768;2022-12-18T05:00:00;37.4;;;14.6;;
49900;SDS011;35789;48.414;12.768;2022-12-18T05:05:00;37.4;;;14.6;;
49900;SDS011;35789;48.414;12.768;2022-12-18T05:10:00;37.4;;;14.6;;
49900;SDS011;35789;48.414;12.768;2022-12-18T05:15:04;37.4;;;14.6;;
49900;SDS011;35789;48.414;12.768;2022-12-18T05:20:00;37.4;;;14.6;;
49900;SDS011;35789;48.414;12.768;2022-12-18T05:25:00;37.0;;;15.1;;
49900;SDS011;35789;48.414;12.768;2022-12-18T05:30:00;37.0;;;15.1;;
49900;SDS011;35789;48.414;12.768;2022-12-18T05:35:00;37.0;;;15.1;;
49900;SDS011;35789;48.414;12.768;2022-12-18T05:40:00;37.0;;;15.1;;
49900;SDS011;35789;48.414;12.768;2022-12-18T05:45:00;37.0;;;15.1;;
49900;SDS011;35789;48.414;12.768;2022-12-18T05:50:00;37.0;;;15.1;;
49900;SDS011;35789;48.414;12.768;2022-12-18T05:55:00;36.6;;;14.9;;
49900;SDS011;35789;48.414;12.768;2022-12-18T06:00:00;36.6;;;14.9;;
49900;SDS011;35789;48.414;12.768;2022-12-18T06:05:00;36.6;;;14.9;;
49900;SDS011;35789;48.414;12.768;2022-12-18T06:10:00;36.6;;;14.9;;
49900;SDS011;35789;48.414;12.768;2022-12-18T06:15:00;36.6;;;14.9;;
49900;SDS011;35789;48.414;12.768;2022-12-18T06:20:00;36.6;;;14.9;;
49900;SDS011;35789;48.414;12.768;2022-12-18T06:25:00;37.6;;;13.5;;
49900;SDS011;35789;48.414;12.768;2022-12-18T06:30:00;37.6;;;13.5;;
49900;SDS011;35789;48.414;12.768;2022-12-18T06:35:00;37.6;;;13.5;;
49900;SDS011;35789;48.414;12.768;2022-12-18T06:40:00;37.6;;;13.5;;
49900;SDS011;35789;48.414;12.768;2022-12-18T06:45:00;37.6;;;13.5;;
49900;SDS011;35789;48.414;12.768;2022-12-18T06:50:00;37.6;;;13.5;;
49900;SDS011;35789;48.414;12.768;2022-12-18T06:55:00;35.2;;;13.3;;
49900;SDS011;35789;48.414;12.768;2022-12-18T07:00:00;35.2;;;13.3;;
49900;SDS011;35789;48.414;12.768;2022-12-18T07:05:00;35.2;;;13.3;;
49900;SDS011;35789;48.414;12.768;2022-12-18T07:10:00;35.2;;;13.3;;
49900;SDS011;35789;48.414;12.768;2022-12-18T07:15:00;unavailable;;;unavailable;;
49900;SDS011;35789;48.414;12.768;2022-12-18T07:20:00;37.0;;;13.0;;
49900;SDS011;35789;48.414;12.768;2022-12-18T07:25:00;37.0;;;13.0;;
49900;SDS011;35789;48.414;12.768;2022-12-18T07:30:00;37.0;;;13.0;;
49900;SDS011;35789;48.414;12.768;2022-12-18T07:35:00;37.0;;;13.0;;
49900;SDS011;35789;48.414;12.768;2022-12-18T07:40:00;37.0;;;13.0;;
49900;SDS011;35789;48.414;12.768;2022-12-18T07:45:01;37.0;;;13.0;;
49900;SDS011;35789;48.414;12.768;2022-12-18T07:50:00;37.2;;;13.5;;
49900;SDS011;35789;48.414;12.768;2022-12-18T07:55:00;37.2;;;13.5;;
49900;SDS011;35789;48.414;12.768;2022-12-18T08:00:00;37.2;;;13.5;;
49900;SDS011;35789;48.414;12.768;2022-12-18T08:05:00;37.2;;;13.5;;
49900;SDS011;35789;48.414;12.768;2022-12-18T08:10:00;37.2;;;13.5;;
49900;SDS011;35789;48.414;12.768;2022-12-18T08:15:00;37.2;;;13.5;;
49900;SDS011;35789;48.414;12.768;2022-12-18T08:20:00;29.6;;;11.8;;
49900;SDS011;35789;48.414;12.768;2022-12-18T08:25:00;29.6;;;11.8;;
49900;SDS011;35789;48.414;12.768;2022-12-18T08:30:00;29.6;;;11.8;;
49900;SDS011;35789;48.414;12.768;2022-12-18T08:35:00;29.6;;;11.8;;
49900;SDS011;35789;48.414;12.768;2022-12-18T08:40:00;29.6;;;11.8;;
49900;SDS011;35789;48.414;12.768;2022-12-18T08:45:00;29.6;;;11.8;;
49900;SDS011;35789;48.414;12.768;2022-12-18T08:50:00;26.8;;;11.4;;
49900;SDS011;35789;48.414;12.768;2022-12-18T08:55:00;26.8;;;11.4;;
49900;SDS011;35789;48.414;12.768;2022-12-18T09:00:00;26.8;;;11.4;;
49900;SDS011;35789;48.414;12.768;2022-12-18T09:05:00;26.8;;;11.4;;
49900;SDS011;35789;48.414;12.768;2022-12-18T09:10:00;26.8;;;11.4;;
49900;SDS011;35789;48.414;12.768;2022-12-18T09:15:00;26.8;;;11.4;;
49900;SDS011;35789;48.414;12.768;2022-12-18T09:20:00;31.1;;;12.2;;
49900;SDS011;35789;48.414;12.768;2022-12-18T09:25:00;31.1;;;12.2;;
49900;SDS011;35789;48.414;12.768;2022-12-18T09:30:00;31.1;;;12.2;;
49900;SDS011;35789;48.414;12.768;2022-12-18T09:35:00;31.1;;;12.2;;
49900;SDS011;35789;48.414;12.768;2022-12-18T09:40:00;31.1;;;12.2;;
49900;SDS011;35789;48.414;12.768;2022-12-18T09:45:00;31.1;;;12.2;;
49900;SDS011;35789;48.414;12.768;2022-12-18T09:50:02;38.4;;;14.4;;
49900;SDS011;35789;48.414;12.768;2022-12-18T09:55:05;38.4;;;14.4;;
49900;SDS011;35789;48.414;12.768;2022-12-18T10:00:04;38.4;;;14.4;;
49900;SDS011;35789;48.414;12.768;2022-12-18T10:05:10;38.4;;;14.4;;
49900;SDS011;35789;48.414;12.768;2022-12-18T10:10:04;38.4;;;14.4;;
49900;SDS011;35789;48.414;12.768;2022-12-18T10:15:05;38.4;;;14.4;;
49900;SDS011;35789;48.414;12.768;2022-12-18T10:20:02;33.6;;;13.9;;
49900;SDS011;35789;48.414;12.768;2022-12-18T10:25:04;33.6;;;13.9;;
49900;SDS011;35789;48.414;12.768;2022-12-18T10:30:01;33.6;;;13.9;;
49900;SDS011;35789;48.414;12.768;2022-12-18T10:35:00;33.6;;;13.9;;
49900;SDS011;35789;48.414;12.768;2022-12-18T10:40:11;33.6;;;13.9;;
49900;SDS011;35789;48.414;12.768;2022-12-18T10:45:01;33.6;;;13.9;;
49900;SDS011;35789;48.414;12.768;2022-12-18T10:50:00;28.8;;;12.0;;
49900;SDS011;35789;48.414;12.768;2022-12-18T10:55:03;28.8;;;12.0;;
49900;SDS011;35789;48.414;12.768;2022-12-18T11:00:20;28.8;;;12.0;;
49900;SDS011;35789;48.414;12.768;2022-12-18T11:05:01;28.8;;;12.0;;
49900;SDS011;35789;48.414;12.768;2022-12-18T11:10:02;28.8;;;12.0;;
49900;SDS011;35789;48.414;12.768;2022-12-18T11:15:00;28.8;;;12.0;;
49900;SDS011;35789;48.414;12.768;2022-12-18T11:20:02;31.2;;;12.4;;
49900;SDS011;35789;48.414;12.768;2022-12-18T11:25:02;31.2;;;12.4;;
49900;SDS011;35789;48.414;12.768;2022-12-18T11:30:08;31.2;;;12.4;;
49900;SDS011;35789;48.414;12.768;2022-12-18T11:35:07;31.2;;;12.4;;
49900;SDS011;35789;48.414;12.768;2022-12-18T11:40:05;31.2;;;12.4;;
49900;SDS011;35789;48.414;12.768;2022-12-18T11:45:03;31.2;;;12.4;;
49900;SDS011;35789;48.414;12.768;2022-12-18T11:50:03;28.9;;;13.1;;
49900;SDS011;35789;48.414;12.768;2022-12-18T11:55:10;28.9;;;13.1;;
49900;SDS011;35789;48.414;12.768;2022-12-18T12:00:04;28.9;;;13.1;;
49900;SDS011;35789;48.414;12.768;2022-12-18T12:05:13;28.9;;;13.1;;
49900;SDS011;35789;48.414;12.768;2022-12-18T12:10:09;28.9;;;13.1;;
49900;SDS011;35789;48.414;12.768;2022-12-18T12:15:10;28.9;;;13.1;;
49900;SDS011;35789;48.414;12.768;2022-12-18T12:20:06;36.2;;;14.7;;
49900;SDS011;35789;48.414;12.768;2022-12-18T12:25:07;36.2;;;14.7;;
49900;SDS011;35789;48.414;12.768;2022-12-18T12:30:05;36.2;;;14.7;;
49900;SDS011;35789;48.414;12.768;2022-12-18T12:35:14;36.2;;;14.7;;
49900;SDS011;35789;48.414;12.768;2022-12-18T12:40:01;36.2;;;14.7;;
49900;SDS011;35789;48.414;12.768;2022-12-18T12:45:03;36.2;;;14.7;;
49900;SDS011;35789;48.414;12.768;2022-12-18T12:50:02;29.5;;;13.2;;
49900;SDS011;35789;48.414;12.768;2022-12-18T12:55:02;29.5;;;13.2;;
49900;SDS011;35789;48.414;12.768;2022-12-18T13:05:05;29.5;;;13.2;;
49900;SDS011;35789;48.414;12.768;2022-12-18T13:10:12;29.5;;;13.2;;
49900;SDS011;35789;48.414;12.768;2022-12-18T13:15:12;29.5;;;13.2;;
49900;SDS011;35789;48.414;12.768;2022-12-18T13:20:07;33.9;;;13.1;;
49900;SDS011;35789;48.414;12.768;2022-12-18T13:25:01;33.9;;;13.1;;
49900;SDS011;35789;48.414;12.768;2022-12-18T13:30:00;33.9;;;13.1;;
49900;SDS011;35789;48.414;12.768;2022-12-18T13:40:00;33.9;;;13.1;;
49900;SDS011;35789;48.414;12.768;2022-12-18T13:45:00;33.9;;;13.1;;
49900;SDS011;35789;48.414;12.768;2022-12-18T13:50:04;35.9;;;17.7;;
49900;SDS011;35789;48.414;12.768;2022-12-18T13:55:03;35.9;;;17.7;;
49900;SDS011;35789;48.414;12.768;2022-12-18T14:05:00;35.9;;;17.7;;
49900;SDS011;35789;48.414;12.768;2022-12-18T14:10:01;35.9;;;17.7;;
49900;SDS011;35789;48.414;12.768;2022-12-18T14:15:01;35.9;;;17.7;;
49900;SDS011;35789;48.414;12.768;2022-12-18T14:20:00;34.2;;;14.2;;
49900;SDS011;35789;48.414;12.768;2022-12-18T14:25:14;34.2;;;14.2;;
49900;SDS011;35789;48.414;12.768;2022-12-18T14:30:00;34.2;;;14.2;;
49900;SDS011;35789;48.414;12.768;2022-12-18T14:35:12;34.2;;;14.2;;
49900;SDS011;35789;48.414;12.768;2022-12-18T14:40:02;34.2;;;14.2;;
49900;SDS011;35789;48.414;12.768;2022-12-18T14:50:00;29.5;;;12.5;;
49900;SDS011;35789;48.414;12.768;2022-12-18T14:55:00;29.5;;;12.5;;
49900;SDS011;35789;48.414;12.768;2022-12-18T15:00:04;29.5;;;12.5;;
49900;SDS011;35789;48.414;12.768;2022-12-18T15:05:02;29.5;;;12.5;;
49900;SDS011;35789;48.414;12.768;2022-12-18T15:10:03;29.5;;;12.5;;
49900;SDS011;35789;48.414;12.768;2022-12-18T15:15:01;29.5;;;12.5;;
49900;SDS011;35789;48.414;12.768;2022-12-18T15:20:03;31.1;;;14.0;;
49900;SDS011;35789;48.414;12.768;2022-12-18T15:25:01;31.1;;;14.0;;
49900;SDS011;35789;48.414;12.768;2022-12-18T15:35:03;31.1;;;14.0;;
49900;SDS011;35789;48.414;12.768;2022-12-18T15:40:00;31.1;;;14.0;;
49900;SDS011;35789;48.414;12.768;2022-12-18T15:45:00;31.1;;;14.0;;
49900;SDS011;35789;48.414;12.768;2022-12-18T15:50:00;27.5;;;12.2;;
49900;SDS011;35789;48.414;12.768;2022-12-18T15:55:00;27.5;;;12.2;;
49900;SDS011;35789;48.414;12.768;2022-12-18T16:00:00;27.5;;;12.2;;
49900;SDS011;35789;48.414;12.768;2022-12-18T16:05:00;27.5;;;12.2;;
49900;SDS011;35789;48.414;12.768;2022-12-18T16:10:00;27.5;;;12.2;;
49900;SDS011;35789;48.414;12.768;2022-12-18T16:15:00;27.5;;;12.2;;
49900;SDS011;35789;48.414;12.768;2022-12-18T16:20:00;28.1;;;12.1;;
49900;SDS011;35789;48.414;12.768;2022-12-18T16:25:00;28.1;;;12.1;;
49900;SDS011;35789;48.414;12.768;2022-12-18T16:30:00;28.1;;;12.1;;
49900;SDS011;35789;48.414;12.768;2022-12-18T16:35:00;28.1;;;12.1;;
49900;SDS011;35789;48.414;12.768;2022-12-18T16:40:00;28.1;;;12.1;;
49900;SDS011;35789;48.414;12.768;2022-12-18T16:45:00;28.1;;;12.1;;
49900;SDS011;35789;48.414;12.768;2022-12-18T16:50:00;30.5;;;13.4;;
49900;SDS011;35789;48.414;12.768;2022-12-18T16:55:00;30.5;;;13.4;;
49900;SDS011;35789;48.414;12.768;2022-12-18T17:00:00;30.5;;;13.4;;
49900;SDS011;35789;48.414;12.768;2022-12-18T17:05:00;30.5;;;13.4;;
49900;SDS011;35789;48.414;12.768;2022-12-18T17:10:00;30.5;;;13.4;;
49900;SDS011;35789;48.414;12.768;2022-12-18T17:15:00;30.5;;;13.4;;
49900;SDS011;35789;48.414;12.768;2022-12-18T17:20:00;28.4;;;13.0;;
49900;SDS011;35789;48.414;12.768;2022-12-18T17:25:00;28.4;;;13.0;;
49900;SDS011;35789;48.414;12.768;2022-12-18T17:30:00;28.4;;;13.0;;
49900;SDS011;35789;48.414;12.768;2022-12-18T17:35:00;28.4;;;13.0;;
49900;SDS011;35789;48.414;12.768;2022-12-18T17:40:00;28.4;;;13.0;;
49900;SDS011;35789;48.414;12.768;2022-12-18T17:45:00;32.9;;;14.9;;
49900;SDS011;35789;48.414;12.768;2022-12-18T17:50:00;32.9;;;14.9;;
49900;SDS011;35789;48.414;12.768;2022-12-18T17:55:00;32.9;;;14.9;;
49900;SDS011;35789;48.414;12.768;2022-12-18T18:00:00;32.9;;;14.9;;
49900;SDS011;35789;48.414;12.768;2022-12-18T18:05:00;32.9;;;14.9;;
49900;SDS011;35789;48.414;12.768;2022-12-18T18:10:00;32.9;;;14.9;;
49900;SDS011;35789;48.414;12.768;2022-12-18T18:15:00;38.1;;;15.6;;
49900;SDS011;35789;48.414;12.768;2022-12-18T18:20:00;38.1;;;15.6;;
49900;SDS011;35789;48.414;12.768;2022-12-18T18:25:00;38.1;;;15.6;;
49900;SDS011;35789;48.414;12.768;2022-12-18T18:30:00;38.1;;;15.6;;
49900;SDS011;35789;48.414;12.768;2022-12-18T18:35:00;38.1;;;15.6;;
49900;SDS011;35789;48.414;12.768;2022-12-18T18:40:00;38.1;;;15.6;;
49900;SDS011;35789;48.414;12.768;2022-12-18T18:45:00;34.0;;;14.0;;
49900;SDS011;35789;48.414;12.768;2022-12-18T18:50:00;34.0;;;14.0;;
49900;SDS011;35789;48.414;12.768;2022-12-18T18:55:00;34.0;;;14.0;;
49900;SDS011;35789;48.414;12.768;2022-12-18T19:00:00;34.0;;;14.0;;
49900;SDS011;35789;48.414;12.768;2022-12-18T19:05:00;34.0;;;14.0;;
49900;SDS011;35789;48.414;12.768;2022-12-18T19:10:00;34.0;;;14.0;;
49900;SDS011;35789;48.414;12.768;2022-12-18T19:15:00;37.3;;;15.3;;
49900;SDS011;35789;48.414;12.768;2022-12-18T19:20:00;37.3;;;15.3;;
49900;SDS011;35789;48.414;12.768;2022-12-18T19:25:00;37.3;;;15.3;;
49900;SDS011;35789;48.414;12.768;2022-12-18T19:30:00;37.3;;;15.3;;
49900;SDS011;35789;48.414;12.768;2022-12-18T19:35:00;37.3;;;15.3;;
49900;SDS011;35789;48.414;12.768;2022-12-18T19:40:00;37.3;;;15.3;;
49900;SDS011;35789;48.414;12.768;2022-12-18T19:45:00;37.4;;;15.1;;
49900;SDS011;35789;48.414;12.768;2022-12-18T19:50:00;37.4;;;15.1;;
49900;SDS011;35789;48.414;12.768;2022-12-18T19:55:00;37.4;;;15.1;;
49900;SDS011;35789;48.414;12.768;2022-12-18T20:00:00;37.4;;;15.1;;
49900;SDS011;35789;48.414;12.768;2022-12-18T20:05:03;37.4;;;15.1;;
49900;SDS011;35789;48.414;12.768;2022-12-18T20:10:00;37.4;;;15.1;;
49900;SDS011;35789;48.414;12.768;2022-12-18T20:15:00;38.1;;;16.7;;
49900;SDS011;35789;48.414;12.768;2022-12-18T20:20:00;38.1;;;16.7;;
49900;SDS011;35789;48.414;12.768;2022-12-18T20:25:00;38.1;;;16.7;;
49900;SDS011;35789;48.414;12.768;2022-12-18T20:30:00;38.1;;;16.7;;
49900;SDS011;35789;48.414;12.768;2022-12-18T20:35:00;38.1;;;16.7;;
49900;SDS011;35789;48.414;12.768;2022-12-18T20:40:00;38.1;;;16.7;;
49900;SDS011;35789;48.414;12.768;2022-12-18T20:45:00;41.5;;;16.2;;
49900;SDS011;35789;48.414;12.768;2022-12-18T20:50:00;41.5;;;16.2;;
49900;SDS011;35789;48.414;12.768;2022-12-18T20:55:01;41.5;;;16.2;;
49900;SDS011;35789;48.414;12.768;2022-12-18T21:00:00;41.5;;;16.2;;
49900;SDS011;35789;48.414;12.768;2022-12-18T21:05:00;41.5;;;16.2;;
49900;SDS011;35789;48.414;12.768;2022-12-18T21:10:03;41.5;;;16.2;;
49900;SDS011;35789;48.414;12.768;2022-12-18T21:15:01;41.3;;;15.8;;
49900;SDS011;35789;48.414;12.768;2022-12-18T21:20:00;41.3;;;15.8;;
49900;SDS011;35789;48.414;12.768;2022-12-18T21:25:00;41.3;;;15.8;;
49900;SDS011;35789;48.414;12.768;2022-12-18T21:30:00;41.3;;;15.8;;
49900;SDS011;35789;48.414;12.768;2022-12-18T21:35:00;41.3;;;15.8;;
49900;SDS011;35789;48.414;12.768;2022-12-18T21:40:00;41.3;;;15.8;;
49900;SDS011;35789;48.414;12.768;2022-12-18T21:45:00;45.3;;;16.8;;
49900;SDS011;35789;48.414;12.768;2022-12-18T21:50:00;45.3;;;16.8;;
49900;SDS011;35789;48.414;12.768;2022-12-18T21:55:01;45.3;;;16.8;;
49900;SDS011;35789;48.414;12.768;2022-12-18T22:00:00;45.3;;;16.8;;
49900;SDS011;35789;48.414;12.768;2022-12-18T22:05:00;45.3;;;16.8;;
49900;SDS011;35789;48.414;12.768;2022-12-18T22:10:00;45.3;;;16.8;;
49900;SDS011;35789;48.414;12.768;2022-12-18T22:15:01;39.2;;;15.5;;
49900;SDS011;35789;48.414;12.768;2022-12-18T22:20:00;39.2;;;15.5;;
49900;SDS011;35789;48.414;12.768;2022-12-18T22:25:00;39.2;;;15.5;;
49900;SDS011;35789;48.414;12.768;2022-12-18T22:30:00;39.2;;;15.5;;
49900;SDS011;35789;48.414;12.768;2022-12-18T22:35:02;39.2;;;15.5;;
49900;SDS011;35789;48.414;12.768;2022-12-18T22:40:00;39.2;;;15.5;;
49900;SDS011;35789;48.414;12.768;2022-12-18T22:45:00;38.2;;;16.1;;
49900;SDS011;35789;48.414;12.768;2022-12-18T22:50:00;38.2;;;16.1;;
49900;SDS011;35789;48.414;12.768;2022-12-18T22:55:00;38.2;;;16.1;;
49900;SDS011;35789;48.414;12.768;2022-12-18T23:00:00;38.2;;;16.1;;
49900;SDS011;35789;48.414;12.768;2022-12-18T23:05:00;38.2;;;16.1;;
49900;SDS011;35789;48.414;12.768;2022-12-18T23:10:00;38.2;;;16.1;;
49900;SDS011;35789;48.414;12.768;2022-12-18T23:15:00;38.7;;;15.9;;
49900;SDS011;35789;48.414;12.768;2022-12-18T23:20:00;38.7;;;15.9;;
49900;SDS011;35789;48.414;12.768;2022-12-18T23:25:00;38.7;;;15.9;;
49900;SDS011;35789;48.414;12.768;2022-12-18T23:30:00;38.7;;;15.9;;
49900;SDS011;35789;48.414;12.768;2022-12-18T23:35:00;38.7;;;15.9;;
49900;SDS011;35789;48.414;12.768;2022-12-18T23:40:00;38.7;;;15.9;;
49900;SDS011;35789;48.414;12.768;2022-12-18T23:45:00;37.7;;;15.0;;
49900;SDS011;35789;48.414;12.768;2022-12-18T23:50:00;37.7;;;15.0;;
49900;SDS011;35789;48.414;12.768;2022-12-18T23:55:00;37.7;;;15.0;;
